Time,TemperatureF,DewpointF,PressureIn,WindDirection,WindDirectionDegrees,WindSpeedMPH,WindSpeedGustMPH,Humidity,HourlyPrecipIn,Conditions,Clouds,dailyrainin,SoftwareType,DateUTC
2013-04-07 00:03:00,44.3,36.8,29.79,SE,135,4.5,6.9,75,0.00,,,0.00,WUHU216HW,2013-04-07 07:03:00,
2013-04-07 00:08:00,44.3,36.8,29.79,SSE,158,10.3,10.3,75,0.00,,,0.00,WUHU216HW,2013-04-07 07:08:00,
2013-04-07 00:13:00,44.3,36.5,29.79,SE,135,8.3,10.3,74,0.00,,,0.00,WUHU216HW,2013-04-07 07:13:00,
2013-04-07 00:18:00,44.5,37.0,29.79,South,180,6.3,8.3,75,0.00,,,0.00,WUHU216HW,2013-04-07 07:18:00,
2013-04-07 00:23:00,44.5,37.4,29.78,SSE,158,6.0,8.1,76,0.00,,,0.00,WUHU216HW,2013-04-07 07:23:00,
2013-04-07 00:28:00,44.3,37.5,29.78,South,180,3.8,8.1,77,0.00,,,0.00,WUHU216HW,2013-04-07 07:28:00,
2013-04-07 00:33:00,44.1,37.4,29.78,South,180,7.4,7.4,77,0.00,,,0.00,WUHU216HW,2013-04-07 07:33:00,
2013-04-07 00:38:00,43.9,37.2,29.78,South,180,3.6,7.4,77,0.00,,,0.00,WUHU216HW,2013-04-07 07:38:00,
2013-04-07 00:43:00,43.9,37.2,29.77,SE,135,5.6,7.6,77,0.00,,,0.00,WUHU216HW,2013-04-07 07:43:00,
2013-04-07 00:48:00,43.9,38.2,29.77,SE,135,5.8,7.6,80,0.02,,,0.02,WUHU216HW,2013-04-07 07:48:00,
2013-04-07 00:53:00,43.4,37.9,29.77,SE,135,5.4,7.6,81,0.02,,,0.02,WUHU216HW,2013-04-07 07:53:00,
2013-04-07 00:58:00,43.0,37.5,29.77,SSE,158,8.5,8.5,81,0.02,,,0.02,WUHU216HW,2013-04-07 07:58:00,
2013-04-07 01:03:00,43.0,37.5,29.77,SSE,158,5.4,8.5,81,0.02,,,0.02,WUHU216HW,2013-04-07 08:03:00,
2013-04-07 01:08:00,43.0,37.5,29.75,SE,135,4.7,8.5,81,0.04,,,0.04,WUHU216HW,2013-04-07 08:08:00,
2013-04-07 01:13:00,43.0,37.5,29.75,SE,135,7.4,9.2,81,0.04,,,0.04,WUHU216HW,2013-04-07 08:13:00,
2013-04-07 01:18:00,43.2,37.7,29.75,SE,135,4.5,9.2,81,0.04,,,0.04,WUHU216HW,2013-04-07 08:18:00,
2013-04-07 01:23:00,43.2,37.4,29.75,ESE,113,6.3,8.5,80,0.04,,,0.04,WUHU216HW,2013-04-07 08:23:00,
2013-04-07 01:28:00,43.2,37.4,29.75,ESE,113,9.2,9.2,80,0.04,,,0.04,WUHU216HW,2013-04-07 08:28:00,
2013-04-07 01:33:00,43.6,37.2,29.75,SE,135,7.6,9.2,78,0.04,,,0.04,WUHU216HW,2013-04-07 08:33:00,
2013-04-07 01:38:00,43.7,37.4,29.75,South,180,2.5,7.6,78,0.04,,,0.04,WUHU216HW,2013-04-07 08:38:00,
2013-04-07 01:43:00,43.7,37.4,29.74,East,90,3.4,7.6,78,0.04,,,0.04,WUHU216HW,2013-04-07 08:43:00,
2013-04-07 01:48:00,43.7,37.6,29.74,SSE,158,3.8,5.6,79,0.02,,,0.04,WUHU216HW,2013-04-07 08:48:00,
2013-04-07 01:53:00,43.6,37.4,29.74,East,90,11.2,11.2,79,0.02,,,0.04,WUHU216HW,2013-04-07 08:53:00,
2013-04-07 01:58:00,43.6,37.4,29.74,SE,135,5.6,11.2,79,0.02,,,0.04,WUHU216HW,2013-04-07 08:58:00,
2013-04-07 02:03:00,43.6,37.4,29.73,South,180,5.1,11.2,79,0.00,,,0.04,WUHU216HW,2013-04-07 09:03:00,
2013-04-07 02:08:00,43.6,37.4,29.73,SE,135,8.1,8.1,79,0.00,,,0.04,WUHU216HW,2013-04-07 09:08:00,
2013-04-07 02:13:00,43.6,37.4,29.72,SE,135,5.8,8.1,79,0.00,,,0.04,WUHU216HW,2013-04-07 09:13:00,
2013-04-07 02:18:00,43.6,37.4,29.71,SE,135,8.3,8.3,79,0.00,,,0.04,WUHU216HW,2013-04-07 09:18:00,
2013-04-07 02:23:00,43.6,37.2,29.71,SE,135,7.4,8.3,78,0.00,,,0.04,WUHU216HW,2013-04-07 09:23:00,
2013-04-07 02:28:00,43.6,37.2,29.70,East,90,5.4,8.3,78,0.00,,,0.04,WUHU216HW,2013-04-07 09:28:00,
2013-04-07 02:33:00,43.7,37.0,29.70,ESE,113,6.3,7.4,77,0.00,,,0.04,WUHU216HW,2013-04-07 09:33:00,
2013-04-07 02:38:00,43.7,37.0,29.69,SE,135,6.3,6.7,77,0.00,,,0.04,WUHU216HW,2013-04-07 09:38:00,
2013-04-07 02:43:00,43.7,37.0,29.69,SE,135,5.4,8.3,77,0.00,,,0.04,WUHU216HW,2013-04-07 09:43:00,
2013-04-07 02:48:00,43.6,36.8,29.69,ESE,113,7.2,8.3,77,0.00,,,0.04,WUHU216HW,2013-04-07 09:48:00,
2013-04-07 02:53:00,43.6,36.8,29.68,SSE,158,3.1,7.2,77,0.00,,,0.04,WUHU216HW,2013-04-07 09:53:00,
2013-04-07 02:58:00,43.4,37.0,29.68,SE,135,6.9,6.9,78,0.00,,,0.04,WUHU216HW,2013-04-07 09:58:00,
2013-04-07 03:03:00,43.4,37.0,29.68,ESE,113,4.5,6.9,78,0.00,,,0.04,WUHU216HW,2013-04-07 10:03:00,
2013-04-07 03:08:00,43.2,36.8,29.68,ESE,113,4.7,6.9,78,0.00,,,0.04,WUHU216HW,2013-04-07 10:08:00,
2013-04-07 03:13:00,43.0,36.6,29.68,ESE,113,0.2,4.7,78,0.00,,,0.04,WUHU216HW,2013-04-07 10:13:00,
2013-04-07 03:18:00,42.8,36.5,29.67,South,180,1.8,4.7,78,0.00,,,0.04,WUHU216HW,2013-04-07 10:18:00,
2013-04-07 03:23:00,42.8,36.5,29.67,South,180,0.4,1.8,78,0.00,,,0.04,WUHU216HW,2013-04-07 10:23:00,
2013-04-07 03:28:00,42.8,36.5,29.67,NE,45,0.7,1.8,78,0.00,,,0.04,WUHU216HW,2013-04-07 10:28:00,
2013-04-07 03:33:00,42.8,36.7,29.68,ENE,68,1.3,1.8,79,0.00,,,0.04,WUHU216HW,2013-04-07 10:33:00,
2013-04-07 03:38:00,42.8,36.5,29.67,ESE,113,1.8,1.8,78,0.00,,,0.04,WUHU216HW,2013-04-07 10:38:00,
2013-04-07 03:43:00,42.7,36.5,29.67,SSE,158,0.0,1.8,79,0.00,,,0.04,WUHU216HW,2013-04-07 10:43:00,
2013-04-07 03:48:00,42.7,36.5,29.68,South,180,0.7,1.8,79,0.00,,,0.04,WUHU216HW,2013-04-07 10:48:00,
2013-04-07 03:53:00,42.7,36.5,29.68,South,180,0.9,1.3,79,0.00,,,0.04,WUHU216HW,2013-04-07 10:53:00,
2013-04-07 03:58:00,42.7,37.2,29.68,WNW,293,1.8,2.5,81,0.00,,,0.04,WUHU216HW,2013-04-07 10:58:00,
2013-04-07 04:03:00,42.5,37.0,29.68,ESE,113,2.5,2.5,81,0.00,,,0.04,WUHU216HW,2013-04-07 11:03:00,
2013-04-07 04:08:00,42.7,37.2,29.68,SSW,203,1.8,2.9,81,0.00,,,0.04,WUHU216HW,2013-04-07 11:08:00,
2013-04-07 04:13:00,42.8,37.4,29.68,West,270,0.4,2.9,81,0.00,,,0.04,WUHU216HW,2013-04-07 11:13:00,
2013-04-07 04:18:00,42.8,38.0,29.68,NW,315,5.6,5.6,83,0.00,,,0.04,WUHU216HW,2013-04-07 11:18:00,
2013-04-07 04:23:00,43.0,37.9,29.68,East,90,3.4,5.6,82,0.00,,,0.04,WUHU216HW,2013-04-07 11:23:00,
2013-04-07 04:28:00,45.0,38.3,29.68,SW,225,15.0,15.0,77,0.00,,,0.04,WUHU216HW,2013-04-07 11:28:00,
2013-04-07 04:33:00,44.6,38.9,29.68,WSW,248,14.1,15.0,80,0.02,,,0.04,WUHU216HW,2013-04-07 11:33:00,
2013-04-07 04:38:00,44.6,38.5,29.69,West,270,7.4,15.0,79,0.02,,,0.06,WUHU216HW,2013-04-07 11:38:00,
2013-04-07 04:43:00,44.3,38.8,29.69,SSW,203,10.1,14.1,81,0.02,,,0.06,WUHU216HW,2013-04-07 11:43:00,
2013-04-07 04:48:00,44.5,37.4,29.68,SW,225,12.8,14.1,76,0.02,,,0.06,WUHU216HW,2013-04-07 11:48:00,
2013-04-07 04:53:00,44.6,36.5,29.68,WSW,248,14.3,14.3,73,0.02,,,0.06,WUHU216HW,2013-04-07 11:53:00,
2013-04-07 04:58:00,44.8,36.4,29.69,SSW,203,10.5,14.3,72,0.02,,,0.06,WUHU216HW,2013-04-07 11:58:00,
2013-04-07 05:03:00,44.6,36.8,29.69,SW,225,7.2,14.3,74,0.02,,,0.06,WUHU216HW,2013-04-07 12:03:00,
2013-04-07 05:08:00,45.2,35.2,29.70,WSW,248,11.4,12.1,68,0.02,,,0.06,WUHU216HW,2013-04-07 12:08:00,
2013-04-07 05:13:00,45.2,34.5,29.70,SW,225,12.8,15.2,66,0.02,,,0.06,WUHU216HW,2013-04-07 12:13:00,
2013-04-07 05:18:00,45.4,34.3,29.70,SW,225,8.5,15.2,65,0.02,,,0.06,WUHU216HW,2013-04-07 12:18:00,
2013-04-07 05:23:00,45.2,34.5,29.70,SW,225,11.4,12.8,66,0.02,,,0.06,WUHU216HW,2013-04-07 12:23:00,
2013-04-07 05:28:00,45.0,35.1,29.70,SSW,203,16.3,16.3,68,0.02,,,0.06,WUHU216HW,2013-04-07 12:28:00,
2013-04-07 05:33:00,44.6,34.8,29.71,SSW,203,10.3,16.3,68,0.00,,,0.06,WUHU216HW,2013-04-07 12:33:00,
2013-04-07 05:38:00,45.0,34.3,29.71,ESE,113,16.1,26.4,66,0.00,,,0.06,WUHU216HW,2013-04-07 12:38:00,
2013-04-07 05:43:00,45.0,35.1,29.71,South,180,19.0,26.4,68,0.00,,,0.06,WUHU216HW,2013-04-07 12:43:00,
2013-04-07 05:48:00,44.5,34.9,29.71,SSW,203,6.9,19.0,69,0.00,,,0.06,WUHU216HW,2013-04-07 12:48:00,
2013-04-07 05:53:00,43.9,35.5,29.70,SW,225,8.1,19.0,72,0.00,,,0.06,WUHU216HW,2013-04-07 12:53:00,
2013-04-07 05:58:00,43.7,34.7,29.70,WSW,248,14.5,14.5,70,0.00,,,0.06,WUHU216HW,2013-04-07 12:58:00,
2013-04-07 06:03:00,43.6,34.8,29.71,SSW,203,18.3,18.3,71,0.00,,,0.06,WUHU216HW,2013-04-07 13:03:00,
2013-04-07 06:09:00,43.4,35.0,29.71,SSW,203,10.5,18.3,72,0.00,,,0.06,WUHU216HW,2013-04-07 13:09:00,
2013-04-07 06:14:00,43.2,34.8,29.72,South,180,6.3,10.5,72,0.00,,,0.06,WUHU216HW,2013-04-07 13:14:00,
2013-04-07 06:19:00,42.8,36.5,29.72,SSW,203,19.2,19.2,78,0.02,,,0.06,WUHU216HW,2013-04-07 13:19:00,
2013-04-07 06:24:00,42.1,36.0,29.72,WSW,248,9.6,19.2,79,0.02,,,0.08,WUHU216HW,2013-04-07 13:24:00,
2013-04-07 06:29:00,42.5,35.7,29.72,SW,225,14.1,18.6,77,0.02,,,0.08,WUHU216HW,2013-04-07 13:29:00,
2013-04-07 06:34:00,43.0,35.7,29.72,SW,225,18.6,18.6,75,0.02,,,0.08,WUHU216HW,2013-04-07 13:34:00,
2013-04-07 06:40:00,42.5,35.7,29.72,South,180,11.6,18.6,77,0.02,,,0.08,WUHU216HW,2013-04-07 13:40:00,
2013-04-07 06:45:00,42.1,35.1,29.72,SW,225,18.8,18.8,76,0.02,,,0.08,WUHU216HW,2013-04-07 13:45:00,
2013-04-07 06:50:00,42.5,35.1,29.72,SSW,203,14.8,18.8,75,0.02,,,0.08,WUHU216HW,2013-04-07 13:50:00,
2013-04-07 06:55:00,42.5,35.5,29.72,SW,225,13.6,14.8,76,0.02,,,0.08,WUHU216HW,2013-04-07 13:55:00,
2013-04-07 07:00:00,42.3,34.9,29.73,South,180,14.5,14.5,75,0.02,,,0.08,WUHU216HW,2013-04-07 14:00:00,
2013-04-07 07:05:00,42.5,35.1,29.73,SW,225,12.1,15.7,75,0.02,,,0.08,WUHU216HW,2013-04-07 14:05:00,
2013-04-07 07:10:00,42.5,34.7,29.73,SW,225,12.8,15.7,74,0.02,,,0.08,WUHU216HW,2013-04-07 14:10:00,
2013-04-07 07:15:00,42.3,34.6,29.74,SW,225,10.3,12.8,74,0.00,,,0.08,WUHU216HW,2013-04-07 14:15:00,
2013-04-07 07:20:00,42.5,34.7,29.74,SW,225,8.7,12.8,74,0.00,,,0.08,WUHU216HW,2013-04-07 14:20:00,
2013-04-07 07:25:00,42.5,34.7,29.74,SW,225,9.2,9.8,74,0.00,,,0.08,WUHU216HW,2013-04-07 14:25:00,
2013-04-07 07:30:00,42.8,34.8,29.75,SW,225,3.4,9.4,73,0.00,,,0.08,WUHU216HW,2013-04-07 14:30:00,
2013-04-07 07:36:00,42.8,35.1,29.75,WSW,248,2.9,9.4,74,0.00,,,0.08,WUHU216HW,2013-04-07 14:36:00,
2013-04-07 07:41:00,42.7,34.7,29.75,SSW,203,6.9,7.6,73,0.00,,,0.08,WUHU216HW,2013-04-07 14:41:00,
2013-04-07 07:46:00,42.8,34.5,29.75,SSW,203,7.2,7.6,72,0.00,,,0.08,WUHU216HW,2013-04-07 14:46:00,
2013-04-07 07:51:00,43.7,35.0,29.75,WSW,248,6.3,8.7,71,0.00,,,0.08,WUHU216HW,2013-04-07 14:51:00,
2013-04-07 07:56:00,43.9,35.2,29.75,SW,225,7.2,15.2,71,0.00,,,0.08,WUHU216HW,2013-04-07 14:56:00,
2013-04-07 08:01:00,44.3,34.7,29.75,SW,225,6.0,15.2,69,0.00,,,0.08,WUHU216HW,2013-04-07 15:01:00,
2013-04-07 08:06:00,44.3,34.4,29.75,SSW,203,5.4,7.2,68,0.00,,,0.08,WUHU216HW,2013-04-07 15:06:00,
2013-04-07 08:11:00,44.3,34.0,29.76,SSW,203,11.6,11.6,67,0.00,,,0.08,WUHU216HW,2013-04-07 15:11:00,
2013-04-07 08:16:00,44.1,34.2,29.77,SSW,203,10.5,11.6,68,0.00,,,0.08,WUHU216HW,2013-04-07 15:16:00,
2013-04-07 08:21:00,43.6,34.1,29.77,South,180,11.9,11.9,69,0.00,,,0.08,WUHU216HW,2013-04-07 15:21:00,
2013-04-07 08:26:00,43.7,34.7,29.76,WSW,248,7.4,11.9,70,0.00,,,0.08,WUHU216HW,2013-04-07 15:26:00,
2013-04-07 08:31:00,43.9,34.0,29.77,SSW,203,11.9,11.9,68,0.00,,,0.08,WUHU216HW,2013-04-07 15:31:00,
2013-04-07 08:36:00,44.1,34.2,29.77,SW,225,8.1,11.9,68,0.00,,,0.08,WUHU216HW,2013-04-07 15:36:00,
2013-04-07 08:41:00,44.3,34.4,29.77,SW,225,6.7,11.9,68,0.00,,,0.08,WUHU216HW,2013-04-07 15:41:00,
2013-04-07 08:46:00,44.6,34.3,29.77,South,180,8.7,10.5,67,0.00,,,0.08,WUHU216HW,2013-04-07 15:46:00,
2013-04-07 08:52:00,45.0,34.3,29.77,SW,225,15.0,15.0,66,0.00,,,0.08,WUHU216HW,2013-04-07 15:52:00,
2013-04-07 08:56:00,45.2,34.8,29.78,SW,225,10.7,15.0,67,0.00,,,0.08,WUHU216HW,2013-04-07 15:56:00,
2013-04-07 09:01:00,45.4,33.8,29.78,NW,315,13.0,15.0,64,0.00,,,0.08,WUHU216HW,2013-04-07 16:01:00,
2013-04-07 09:06:00,45.4,33.5,29.78,SSW,203,12.1,13.0,63,0.00,,,0.08,WUHU216HW,2013-04-07 16:06:00,
2013-04-07 09:12:00,44.8,33.8,29.79,SW,225,12.5,14.5,65,0.00,,,0.08,WUHU216HW,2013-04-07 16:12:00,
2013-04-07 09:17:00,43.6,34.5,29.79,WSW,248,9.8,15.0,70,0.00,,,0.08,WUHU216HW,2013-04-07 16:17:00,
2013-04-07 09:22:00,43.4,34.7,29.79,WSW,248,12.5,15.0,71,0.00,,,0.08,WUHU216HW,2013-04-07 16:22:00,
2013-04-07 09:27:00,43.4,35.0,29.79,SW,225,6.3,12.5,72,0.00,,,0.08,WUHU216HW,2013-04-07 16:27:00,
2013-04-07 09:32:00,43.6,35.2,29.79,SSW,203,11.0,12.5,72,0.00,,,0.08,WUHU216HW,2013-04-07 16:32:00,
2013-04-07 09:37:00,43.2,36.1,29.79,WSW,248,6.9,11.0,76,0.00,,,0.08,WUHU216HW,2013-04-07 16:37:00,
2013-04-07 09:42:00,43.2,35.8,29.79,WSW,248,11.6,17.0,75,0.00,,,0.08,WUHU216HW,2013-04-07 16:42:00,
2013-04-07 09:47:00,43.2,35.5,29.79,SW,225,5.6,17.0,74,0.00,,,0.08,WUHU216HW,2013-04-07 16:47:00,
2013-04-07 09:52:00,43.6,35.5,29.79,SW,225,10.7,11.6,73,0.00,,,0.08,WUHU216HW,2013-04-07 16:52:00,
2013-04-07 09:57:00,43.9,35.8,29.80,SW,225,11.2,14.5,73,0.00,,,0.08,WUHU216HW,2013-04-07 16:57:00,
2013-04-07 10:02:00,43.6,35.8,29.80,WSW,248,5.8,14.5,74,0.00,,,0.08,WUHU216HW,2013-04-07 17:02:00,
2013-04-07 10:07:00,43.6,35.5,29.80,WSW,248,13.2,13.9,73,0.00,,,0.08,WUHU216HW,2013-04-07 17:07:00,
2013-04-07 10:12:00,43.6,35.8,29.80,West,270,9.8,13.2,74,0.00,,,0.08,WUHU216HW,2013-04-07 17:12:00,
2013-04-07 10:17:00,43.9,35.8,29.80,SW,225,8.9,9.8,73,0.00,,,0.08,WUHU216HW,2013-04-07 17:17:00,
2013-04-07 10:22:00,44.1,35.6,29.81,WSW,248,14.8,14.8,72,0.00,,,0.08,WUHU216HW,2013-04-07 17:22:00,
2013-04-07 10:27:00,44.1,36.4,29.81,WSW,248,11.9,14.8,74,0.00,,,0.08,WUHU216HW,2013-04-07 17:27:00,
2013-04-07 10:32:00,43.6,35.8,29.81,WSW,248,7.6,14.8,74,0.00,,,0.08,WUHU216HW,2013-04-07 17:32:00,
2013-04-07 10:37:00,43.7,35.3,29.81,SW,225,6.3,11.4,72,0.00,,,0.08,WUHU216HW,2013-04-07 17:37:00,
2013-04-07 10:42:00,44.3,34.7,29.80,SW,225,4.3,11.4,69,0.00,,,0.08,WUHU216HW,2013-04-07 17:42:00,
2013-04-07 10:47:00,44.6,34.8,29.80,West,270,7.8,13.9,68,0.00,,,0.08,WUHU216HW,2013-04-07 17:47:00,
2013-04-07 10:52:00,45.2,35.2,29.80,West,270,8.3,13.9,68,0.00,,,0.08,WUHU216HW,2013-04-07 17:52:00,
2013-04-07 10:57:00,45.7,34.2,29.80,SSW,203,9.2,10.7,64,0.00,,,0.08,WUHU216HW,2013-04-07 17:57:00,
2013-04-07 11:02:00,45.4,35.0,29.80,WNW,293,13.0,14.5,67,0.00,,,0.08,WUHU216HW,2013-04-07 18:02:00,
2013-04-07 11:07:00,45.7,34.6,29.81,WSW,248,11.0,14.5,65,0.00,,,0.08,WUHU216HW,2013-04-07 18:07:00,
2013-04-07 11:12:00,45.7,34.2,29.81,WSW,248,8.5,13.0,64,0.00,,,0.08,WUHU216HW,2013-04-07 18:12:00,
2013-04-07 11:17:00,46.4,34.9,29.81,SSW,203,9.2,11.4,64,0.00,,,0.08,WUHU216HW,2013-04-07 18:17:00,
2013-04-07 11:22:00,45.9,32.4,29.81,SSW,203,8.5,14.5,59,0.00,,,0.08,WUHU216HW,2013-04-07 18:22:00,
2013-04-07 11:27:00,45.0,33.1,29.81,WSW,248,4.0,14.5,63,0.00,,,0.08,WUHU216HW,2013-04-07 18:27:00,
2013-04-07 11:32:00,45.7,34.6,29.81,SSW,203,9.6,12.1,65,0.00,,,0.08,WUHU216HW,2013-04-07 18:32:00,
2013-04-07 11:37:00,46.1,35.4,29.81,SW,225,11.6,18.8,66,0.00,,,0.08,WUHU216HW,2013-04-07 18:37:00,
2013-04-07 11:42:00,44.3,34.0,29.81,SW,225,7.4,18.8,67,0.00,,,0.08,WUHU216HW,2013-04-07 18:42:00,
2013-04-07 11:47:00,44.5,34.6,29.81,SW,225,4.9,15.7,68,0.00,,,0.08,WUHU216HW,2013-04-07 18:47:00,
2013-04-07 11:52:00,46.4,34.5,29.81,WSW,248,8.1,8.1,63,0.00,,,0.08,WUHU216HW,2013-04-07 18:52:00,
2013-04-07 11:57:00,45.9,34.0,29.81,SW,225,12.1,12.1,63,0.00,,,0.08,WUHU216HW,2013-04-07 18:57:00,
2013-04-07 12:02:00,45.4,32.7,29.81,WSW,248,12.1,12.1,61,0.00,,,0.08,WUHU216HW,2013-04-07 19:02:00,
2013-04-07 12:07:00,45.7,33.0,29.81,WSW,248,14.1,14.1,61,0.00,,,0.08,WUHU216HW,2013-04-07 19:07:00,
2013-04-07 12:12:00,46.3,32.7,29.81,SW,225,14.3,14.3,59,0.00,,,0.08,WUHU216HW,2013-04-07 19:12:00,
2013-04-07 12:17:00,46.8,32.3,29.81,WNW,293,14.8,14.8,57,0.00,,,0.08,WUHU216HW,2013-04-07 19:17:00,
2013-04-07 12:22:00,46.4,33.3,29.81,SW,225,13.4,14.8,60,0.00,,,0.08,WUHU216HW,2013-04-07 19:22:00,
2013-04-07 12:27:00,46.1,32.9,29.81,SW,225,8.5,13.4,60,0.00,,,0.08,WUHU216HW,2013-04-07 19:27:00,
2013-04-07 12:32:00,45.9,32.4,29.80,SW,225,13.0,13.0,59,0.00,,,0.08,WUHU216HW,2013-04-07 19:32:00,
2013-04-07 12:37:00,46.4,32.4,29.80,WSW,248,12.8,18.1,58,0.00,,,0.08,WUHU216HW,2013-04-07 19:37:00,
2013-04-07 12:42:00,46.4,32.0,29.80,SW,225,13.0,18.1,57,0.00,,,0.08,WUHU216HW,2013-04-07 19:42:00,
2013-04-07 12:48:00,47.2,32.2,29.79,SW,225,14.3,14.3,56,0.00,,,0.08,WUHU216HW,2013-04-07 19:48:00,
2013-04-07 12:53:00,47.2,32.2,29.80,SW,225,17.9,17.9,56,0.00,,,0.08,WUHU216HW,2013-04-07 19:53:00,
2013-04-07 12:58:00,47.0,32.5,29.80,WSW,248,20.1,20.1,57,0.00,,,0.08,WUHU216HW,2013-04-07 19:58:00,
2013-04-07 13:03:00,46.6,33.5,29.80,SW,225,11.2,20.1,60,0.00,,,0.08,WUHU216HW,2013-04-07 20:03:00,
2013-04-07 13:08:00,46.3,33.9,29.79,SW,225,11.9,18.3,62,0.00,,,0.08,WUHU216HW,2013-04-07 20:08:00,
2013-04-07 13:13:00,45.2,32.6,29.79,WSW,248,20.1,20.1,61,0.00,,,0.08,WUHU216HW,2013-04-07 20:13:00,
2013-04-07 13:18:00,45.7,32.2,29.78,SW,225,20.1,20.1,59,0.00,,,0.08,WUHU216HW,2013-04-07 20:18:00,
2013-04-07 13:23:00,46.4,32.0,29.78,West,270,13.4,20.1,57,0.00,,,0.08,WUHU216HW,2013-04-07 20:23:00,
2013-04-07 13:28:00,46.4,29.7,29.78,SW,225,16.3,16.3,52,0.00,,,0.08,WUHU216HW,2013-04-07 20:28:00,
2013-04-07 13:33:00,46.3,29.1,29.78,NNW,338,25.9,25.9,51,0.00,,,0.08,WUHU216HW,2013-04-07 20:33:00,
2013-04-07 13:38:00,46.3,29.1,29.78,WNW,293,30.6,30.6,51,0.00,,,0.08,WUHU216HW,2013-04-07 20:38:00,
2013-04-07 13:43:00,45.7,30.4,29.79,North,0,23.7,30.6,55,0.00,,,0.08,WUHU216HW,2013-04-07 20:43:00,
2013-04-07 13:48:00,45.7,31.3,29.79,NW,315,19.5,31.1,57,0.00,,,0.08,WUHU216HW,2013-04-07 20:48:00,
2013-04-07 13:53:00,44.5,31.9,29.79,NNW,338,14.8,31.1,61,0.00,,,0.08,WUHU216HW,2013-04-07 20:53:00,
2013-04-07 13:58:00,45.7,31.3,29.78,WNW,293,9.4,21.0,57,0.00,,,0.08,WUHU216HW,2013-04-07 20:58:00,
2013-04-07 14:03:00,45.7,30.0,29.78,NW,315,15.4,16.1,54,0.00,,,0.08,WUHU216HW,2013-04-07 21:03:00,
2013-04-07 14:08:00,46.1,29.8,29.78,NNW,338,14.5,17.7,53,0.00,,,0.08,WUHU216HW,2013-04-07 21:08:00,
2013-04-07 14:13:00,46.8,29.6,29.78,NW,315,21.5,21.5,51,0.00,,,0.08,WUHU216HW,2013-04-07 21:13:00,
2013-04-07 14:18:00,47.7,28.9,29.78,NW,315,19.9,23.3,48,0.00,,,0.08,WUHU216HW,2013-04-07 21:18:00,
2013-04-07 14:23:00,47.2,28.4,29.78,NW,315,20.4,25.5,48,0.00,,,0.08,WUHU216HW,2013-04-07 21:23:00,
2013-04-07 14:28:00,47.3,28.0,29.78,WNW,293,18.6,25.5,47,0.00,,,0.08,WUHU216HW,2013-04-07 21:28:00,
2013-04-07 14:33:00,47.7,28.4,29.78,NNW,338,12.8,21.0,47,0.00,,,0.08,WUHU216HW,2013-04-07 21:33:00,
2013-04-07 14:38:00,47.3,28.5,29.79,WNW,293,25.3,25.3,48,0.00,,,0.08,WUHU216HW,2013-04-07 21:38:00,
2013-04-07 14:43:00,47.7,28.9,29.79,NNW,338,17.0,25.3,48,0.00,,,0.08,WUHU216HW,2013-04-07 21:43:00,
2013-04-07 14:48:00,47.9,28.4,29.79,NW,315,23.0,25.3,47,0.00,,,0.08,WUHU216HW,2013-04-07 21:48:00,
2013-04-07 14:53:00,48.2,28.8,29.79,WNW,293,17.0,23.0,47,0.00,,,0.08,WUHU216HW,2013-04-07 21:53:00,
2013-04-07 14:58:00,47.3,29.1,29.80,NW,315,19.5,23.0,49,0.00,,,0.08,WUHU216HW,2013-04-07 21:58:00,
2013-04-07 15:03:00,46.4,29.7,29.79,WNW,293,19.2,21.0,52,0.00,,,0.08,WUHU216HW,2013-04-07 22:03:00,
2013-04-07 15:08:00,47.0,31.6,29.79,NW,315,9.4,21.0,55,0.00,,,0.08,WUHU216HW,2013-04-07 22:08:00,
2013-04-07 15:13:00,47.2,31.3,29.80,WNW,293,12.1,19.2,54,0.00,,,0.08,WUHU216HW,2013-04-07 22:13:00,
2013-04-07 15:18:00,47.3,31.9,29.80,NW,315,9.2,12.1,55,0.00,,,0.08,WUHU216HW,2013-04-07 22:18:00,
2013-04-07 15:23:00,48.2,30.4,29.80,WNW,293,6.5,11.0,50,0.00,,,0.08,WUHU216HW,2013-04-07 22:23:00,
2013-04-07 15:28:00,48.4,30.1,29.80,North,0,15.4,15.4,49,0.00,,,0.08,WUHU216HW,2013-04-07 22:28:00,
2013-04-07 15:33:00,47.3,29.1,29.81,NW,315,15.7,15.7,49,0.00,,,0.08,WUHU216HW,2013-04-07 22:33:00,
2013-04-07 15:38:00,45.4,30.5,29.82,NNW,338,15.0,15.7,56,0.00,,,0.08,WUHU216HW,2013-04-07 22:38:00,
2013-04-07 15:43:00,45.2,30.8,29.82,NNW,338,8.9,15.7,57,0.00,,,0.08,WUHU216HW,2013-04-07 22:43:00,
2013-04-07 15:48:00,45.5,31.1,29.82,NNW,338,8.1,15.0,57,0.00,,,0.08,WUHU216HW,2013-04-07 22:48:00,
2013-04-07 15:53:00,45.7,32.2,29.82,WNW,293,4.7,11.4,59,0.00,,,0.08,WUHU216HW,2013-04-07 22:53:00,
2013-04-07 15:58:00,46.1,32.0,29.83,NW,315,7.4,11.4,58,0.00,,,0.08,WUHU216HW,2013-04-07 22:58:00,
2013-04-07 16:03:00,46.1,31.6,29.84,NNW,338,8.7,8.7,57,0.00,,,0.08,WUHU216HW,2013-04-07 23:03:00,
2013-04-07 16:08:00,45.5,31.6,29.84,NW,315,5.8,8.7,58,0.00,,,0.08,WUHU216HW,2013-04-07 23:08:00,
2013-04-07 16:13:00,46.3,31.8,29.84,NNW,338,5.4,13.4,57,0.00,,,0.08,WUHU216HW,2013-04-07 23:13:00,
2013-04-07 16:18:00,45.9,31.1,29.84,WNW,293,9.2,13.4,56,0.00,,,0.08,WUHU216HW,2013-04-07 23:18:00,
2013-04-07 16:23:00,44.5,31.5,29.84,NW,315,6.9,10.7,60,0.00,,,0.08,WUHU216HW,2013-04-07 23:23:00,
2013-04-07 16:28:00,45.7,33.0,29.84,North,0,6.3,9.2,61,0.00,,,0.08,WUHU216HW,2013-04-07 23:28:00,
2013-04-07 16:33:00,46.4,32.9,29.84,North,0,6.9,8.1,59,0.00,,,0.08,WUHU216HW,2013-04-07 23:33:00,
2013-04-07 16:38:00,47.3,33.3,29.84,North,0,4.9,6.9,58,0.00,,,0.08,WUHU216HW,2013-04-07 23:38:00,
2013-04-07 16:43:00,47.3,33.3,29.84,ENE,68,4.0,6.9,58,0.00,,,0.08,WUHU216HW,2013-04-07 23:43:00,
2013-04-07 16:48:00,47.2,32.7,29.84,North,0,1.8,4.9,57,0.00,,,0.08,WUHU216HW,2013-04-07 23:48:00,
2013-04-07 16:53:00,46.1,31.6,29.85,NNW,338,1.1,4.0,57,0.00,,,0.08,WUHU216HW,2013-04-07 23:53:00,
2013-04-07 17:03:00,44.8,29.2,29.84,WNW,293,8.1,9.4,54,0.00,,,0.08,WUHU216HW,2013-04-08 00:03:00,
2013-04-07 17:08:00,44.6,29.0,29.85,WNW,293,11.0,11.0,54,0.00,,,0.08,WUHU216HW,2013-04-08 00:08:00,
2013-04-07 17:13:00,45.0,30.7,29.85,NNW,338,8.9,11.0,57,0.00,,,0.08,WUHU216HW,2013-04-08 00:13:00,
2013-04-07 17:18:00,45.5,30.7,29.85,WNW,293,11.9,11.9,56,0.00,,,0.08,WUHU216HW,2013-04-08 00:18:00,
2013-04-07 17:23:00,45.2,29.9,29.84,East,90,3.4,11.9,55,0.00,,,0.08,WUHU216HW,2013-04-08 00:23:00,
2013-04-07 17:28:00,44.5,29.7,29.84,WNW,293,10.1,12.1,56,0.00,,,0.08,WUHU216HW,2013-04-08 00:28:00,
2013-04-07 17:33:00,44.5,30.6,29.84,WNW,293,4.5,12.1,58,0.00,,,0.08,WUHU216HW,2013-04-08 00:33:00,
2013-04-07 17:38:00,44.6,30.8,29.84,WNW,293,4.7,10.1,58,0.00,,,0.08,WUHU216HW,2013-04-08 00:38:00,
2013-04-07 17:43:00,43.7,30.3,29.83,NNW,338,15.4,15.4,59,0.00,,,0.08,WUHU216HW,2013-04-08 00:43:00,
2013-04-07 17:48:00,43.4,31.2,29.83,WNW,293,9.2,15.4,62,0.00,,,0.08,WUHU216HW,2013-04-08 00:48:00,
2013-04-07 17:53:00,42.5,30.0,29.83,NW,315,11.6,15.9,61,0.00,,,0.08,WUHU216HW,2013-04-08 00:53:00,
2013-04-07 17:58:00,42.1,30.0,29.82,WNW,293,6.0,15.9,62,0.00,,,0.08,WUHU216HW,2013-04-08 00:58:00,
2013-04-07 18:03:00,42.3,30.6,29.82,NNW,338,10.5,11.6,63,0.00,,,0.08,WUHU216HW,2013-04-08 01:03:00,
2013-04-07 18:08:00,42.8,30.7,29.82,NW,315,5.1,10.5,62,0.00,,,0.08,WUHU216HW,2013-04-08 01:08:00,
2013-04-07 18:13:00,42.7,30.5,29.82,North,0,4.7,7.8,62,0.00,,,0.08,WUHU216HW,2013-04-08 01:13:00,
2013-04-07 18:18:00,42.8,29.9,29.82,NNW,338,4.0,8.5,60,0.00,,,0.08,WUHU216HW,2013-04-08 01:18:00,
2013-04-07 18:23:00,42.5,30.0,29.83,NW,315,4.0,8.5,61,0.00,,,0.08,WUHU216HW,2013-04-08 01:23:00,
2013-04-07 18:28:00,42.1,28.8,29.83,North,0,1.1,4.3,59,0.00,,,0.08,WUHU216HW,2013-04-08 01:28:00,
2013-04-07 18:34:00,42.5,29.2,29.82,East,90,4.0,4.0,59,0.00,,,0.08,WUHU216HW,2013-04-08 01:34:00,
2013-04-07 18:39:00,42.3,27.6,29.83,WNW,293,1.3,4.0,56,0.00,,,0.08,WUHU216HW,2013-04-08 01:39:00,
2013-04-07 18:44:00,42.7,29.3,29.83,East,90,2.5,4.0,59,0.00,,,0.08,WUHU216HW,2013-04-08 01:44:00,
2013-04-07 18:49:00,42.7,28.9,29.83,ENE,68,2.9,4.0,58,0.00,,,0.08,WUHU216HW,2013-04-08 01:49:00,
2013-04-07 18:54:00,42.7,28.9,29.83,NNE,23,5.4,5.4,58,0.00,,,0.08,WUHU216HW,2013-04-08 01:54:00,
2013-04-07 18:59:00,42.5,28.7,29.83,North,0,0.9,5.4,58,0.00,,,0.08,WUHU216HW,2013-04-08 01:59:00,
2013-04-07 19:04:00,42.5,26.6,29.83,North,0,1.6,2.5,53,0.00,,,0.08,WUHU216HW,2013-04-08 02:04:00,
2013-04-07 19:09:00,42.3,27.2,29.83,WNW,293,2.0,2.5,55,0.00,,,0.08,WUHU216HW,2013-04-08 02:09:00,
2013-04-07 19:14:00,42.1,27.0,29.83,WNW,293,4.7,4.7,55,0.00,,,0.08,WUHU216HW,2013-04-08 02:14:00,
2013-04-07 19:19:00,41.4,26.8,29.83,WNW,293,4.0,5.1,56,0.00,,,0.08,WUHU216HW,2013-04-08 02:19:00,
2013-04-07 19:24:00,41.2,27.1,29.84,North,0,4.0,5.1,57,0.00,,,0.08,WUHU216HW,2013-04-08 02:24:00,
2013-04-07 19:29:00,41.0,27.4,29.84,WNW,293,2.7,6.0,58,0.00,,,0.08,WUHU216HW,2013-04-08 02:29:00,
2013-04-07 19:34:00,40.9,27.6,29.84,WNW,293,6.9,6.9,59,0.00,,,0.08,WUHU216HW,2013-04-08 02:34:00,
2013-04-07 19:39:00,40.5,27.7,29.84,WNW,293,4.3,7.2,60,0.00,,,0.08,WUHU216HW,2013-04-08 02:39:00,
2013-04-07 19:45:00,40.1,28.1,29.84,North,0,8.1,13.2,62,0.00,,,0.08,WUHU216HW,2013-04-08 02:45:00,
2013-04-07 19:50:00,39.8,28.2,29.84,NNW,338,7.6,13.2,63,0.00,,,0.08,WUHU216HW,2013-04-08 02:50:00,
2013-04-07 19:55:00,39.6,28.0,29.84,NW,315,4.0,8.9,63,0.00,,,0.08,WUHU216HW,2013-04-08 02:55:00,
2013-04-07 20:00:00,39.2,28.0,29.84,NW,315,3.1,5.4,64,0.00,,,0.08,WUHU216HW,2013-04-08 03:00:00,
2013-04-07 20:05:00,39.1,27.5,29.85,NW,315,7.2,7.2,63,0.00,,,0.08,WUHU216HW,2013-04-08 03:05:00,
2013-04-07 20:10:00,38.9,27.3,29.84,NW,315,9.2,9.4,63,0.00,,,0.08,WUHU216HW,2013-04-08 03:10:00,
2013-04-07 20:20:00,38.7,27.1,29.84,North,0,4.0,8.5,63,0.00,,,0.08,WUHU216HW,2013-04-08 03:20:00,
2013-04-07 20:25:00,38.5,26.9,29.83,WNW,293,6.3,9.4,63,0.00,,,0.08,WUHU216HW,2013-04-08 03:25:00,
2013-04-07 20:30:00,38.5,27.4,29.83,NNW,338,2.7,9.4,64,0.00,,,0.08,WUHU216HW,2013-04-08 03:30:00,
2013-04-07 20:36:00,38.2,27.4,29.83,WNW,293,8.1,8.7,65,0.00,,,0.08,WUHU216HW,2013-04-08 03:36:00,
2013-04-07 20:41:00,37.8,27.1,29.84,WNW,293,4.7,8.1,65,0.00,,,0.08,WUHU216HW,2013-04-08 03:41:00,
2013-04-07 20:46:00,37.8,27.1,29.84,NNW,338,2.7,8.1,65,0.00,,,0.08,WUHU216HW,2013-04-08 03:46:00,
2013-04-07 20:51:00,37.6,26.9,29.84,NW,315,2.0,6.9,65,0.00,,,0.08,WUHU216HW,2013-04-08 03:51:00,
2013-04-07 20:56:00,37.6,26.9,29.84,NW,315,4.0,6.9,65,0.00,,,0.08,WUHU216HW,2013-04-08 03:56:00,
2013-04-07 21:01:00,37.3,27.3,29.84,NNE,23,3.1,4.0,67,0.00,,,0.08,WUHU216HW,2013-04-08 04:01:00,
2013-04-07 21:07:00,37.1,27.6,29.84,North,0,2.2,5.4,68,0.00,,,0.08,WUHU216HW,2013-04-08 04:07:00,
2013-04-07 21:12:00,37.1,27.6,29.84,North,0,2.2,5.4,68,0.00,,,0.08,WUHU216HW,2013-04-08 04:12:00,
2013-04-07 21:35:00,34.9,27.1,29.85,East,90,2.2,3.4,73,0.00,,,0.08,WUHU216HW,2013-04-08 04:35:00,
2013-04-07 21:40:00,34.9,27.1,29.85,East,90,2.2,3.4,73,0.00,,,0.08,WUHU216HW,2013-04-08 04:40:00,
2013-04-07 22:05:00,34.6,27.0,29.85,NW,315,0.2,0.2,74,0.00,,,0.08,WUHU216HW,2013-04-08 05:05:00,
2013-04-07 23:05:00,33.8,27.3,29.86,NNW,338,0.4,0.7,77,0.00,,,0.08,WUHU216HW,2013-04-08 06:05:00,
2013-04-07 23:10:00,33.7,27.1,29.86,NNW,338,0.4,0.7,77,0.00,,,0.08,WUHU216HW,2013-04-08 06:10:00,
2013-04-07 23:15:00,33.5,27.0,29.86,NNW,338,1.1,1.1,77,0.00,,,0.08,WUHU216HW,2013-04-08 06:15:00,
2013-04-07 23:20:00,33.5,26.6,29.86,NNW,338,1.1,1.1,76,0.00,,,0.08,WUHU216HW,2013-04-08 06:20:00,
2013-04-07 23:25:00,33.5,26.6,29.87,ENE,68,1.3,1.8,76,0.00,,,0.08,WUHU216HW,2013-04-08 06:25:00,
2013-04-07 23:30:00,33.5,27.3,29.87,ENE,68,0.4,1.8,78,0.00,,,0.08,WUHU216HW,2013-04-08 06:30:00,
2013-04-07 23:35:00,33.7,27.5,29.87,ENE,68,0.0,1.1,78,0.00,,,0.08,WUHU216HW,2013-04-08 06:35:00,
2013-04-07 23:40:00,33.7,27.5,29.88,East,90,1.1,1.1,78,0.00,,,0.08,WUHU216HW,2013-04-08 06:40:00,
2013-04-07 23:45:00,33.5,27.3,29.88,ENE,68,1.3,2.7,78,0.00,,,0.08,WUHU216HW,2013-04-08 06:45:00,
2013-04-07 23:50:00,33.5,27.6,29.88,East,90,1.3,2.7,79,0.00,,,0.08,WUHU216HW,2013-04-08 06:50:00,
2013-04-07 23:55:00,33.3,27.5,29.88,East,90,1.8,3.1,79,0.00,,,0.08,WUHU216HW,2013-04-08 06:55:00,